Time;durP1;ratioP1;P1;durP2;ratioP2;P2;SDS_P1;SDS_P2;PMS_P1;PMS_P2;Temp;Humidity;BMP_temperature;BMP_pressure;BME280_temperature;BME280_humidity;BME280_pressure;Samples;Min_cycle;Max_cycle;Signal;HPM_P1;HPM_P2
2022/12/18 00:01:28;;;;;;;89.75;37.75;;;;;;;-5.13;73.24;102044.88;4160600;28;20049;-65
2022/12/18 00:03:31;;;;;;;85.80;38.08;;;;;;;-5.22;74.13;102041.41;4163459;28;20081;-65
2022/12/18 00:05:34;;;;;;;87.03;35.72;;;;;;;-5.13;73.76;102048.28;4161723;28;20037;-65
2022/12/18 00:07:37;;;;;;;84.05;38.33;;;;;;;-5.16;73.19;102047.09;4148483;28;20069;-70
2022/12/18 00:09:40;;;;;;;80.10;35.97;;;;;;;-5.05;74.21;102050.72;4146339;28;20092;-66
2022/12/18 00:11:44;;;;;;;80.57;36.78;;;;;;;-5.16;74.09;102042.03;4156104;28;20041;-66
2022/12/18 00:13:48;;;;;;;68.70;32.60;;;;;;;-5.13;73.56;102044.88;4150967;28;20484;-65
2022/12/18 00:15:51;;;;;;;78.07;34.22;;;;;;;-5.11;74.45;102043.38;4159576;28;20044;-66
2022/12/18 00:17:58;;;;;;;75.32;33.95;;;;;;;-5.10;73.21;102040.09;4147436;28;20053;-66
2022/12/18 00:20:01;;;;;;;73.15;34.20;;;;;;;-5.12;73.79;102049.22;4142758;28;20100;-66
2022/12/18 00:22:04;;;;;;;70.30;32.47;;;;;;;-5.10;73.34;102045.19;4154558;28;20078;-66
2022/12/18 00:24:08;;;;;;;71.47;32.70;;;;;;;-5.21;73.54;102044.09;4154145;28;20037;-66
2022/12/18 00:26:13;;;;;;;79.90;35.20;;;;;;;-5.33;72.60;102041.19;4162586;28;20042;-65
2022/12/18 00:28:17;;;;;;;74.40;34.30;;;;;;;-5.27;73.99;102039.28;4151473;28;20084;-65
2022/12/18 00:30:21;;;;;;;74.20;33.22;;;;;;;-5.15;72.43;102052.31;4160515;28;20042;-65
2022/12/18 00:32:24;;;;;;;74.63;34.47;;;;;;;-5.19;71.84;102052.75;4159550;28;20492;-65
2022/12/18 00:34:27;;;;;;;68.97;31.52;;;;;;;-5.18;72.16;102041.88;4155507;28;20117;-65
2022/12/18 00:36:31;;;;;;;80.63;34.35;;;;;;;-5.24;72.66;102037.78;4150601;28;20072;-65
2022/12/18 00:38:35;;;;;;;78.45;35.25;;;;;;;-5.34;72.13;102046.09;4163609;28;20049;-65
2022/12/18 00:40:37;;;;;;;82.35;32.83;;;;;;;-5.25;73.51;102057.19;4158143;28;20490;-65
2022/12/18 00:42:58;;;;;;;88.97;35.90;;;;;;;-5.24;73.03;102055.53;4158018;28;20136;-65
2022/12/18 00:45:02;;;;;;;78.40;32.88;;;;;;;-5.30;73.15;102059.25;4137629;28;20038;-65
2022/12/18 00:47:14;;;;;;;79.40;34.58;;;;;;;-5.35;73.50;102059.50;4149004;28;20093;-65
2022/12/18 00:49:21;;;;;;;76.35;34.30;;;;;;;-5.24;71.93;102061.53;4156238;28;20128;-65
2022/12/18 00:51:24;;;;;;;78.72;34.20;;;;;;;-5.42;72.17;102063.03;4151523;28;20578;-65
2022/12/18 00:53:27;;;;;;;81.07;34.30;;;;;;;-5.39;72.44;102058.28;4164798;28;20045;-65
2022/12/18 00:55:31;;;;;;;62.83;26.95;;;;;;;-5.33;72.79;102058.94;4165406;28;20553;-65
2022/12/18 00:57:34;;;;;;;78.90;34.50;;;;;;;-5.38;72.84;102059.19;4165378;28;20033;-65
2022/12/18 00:59:37;;;;;;;73.68;35.22;;;;;;;-5.46;73.31;102064.34;4148955;28;20499;-65
2022/12/18 01:01:41;;;;;;;79.20;33.30;;;;;;;-5.34;73.08;102071.44;4149079;28;20053;-65
2022/12/18 01:03:45;;;;;;;78.47;33.75;;;;;;;-5.41;73.27;102058.88;4149802;28;20048;-64
2022/12/18 01:05:47;;;;;;;81.05;34.72;;;;;;;-5.44;72.17;102051.84;4148890;28;20049;-65
2022/12/18 01:07:50;;;;;;;70.25;31.77;;;;;;;-5.53;72.96;102049.25;4149328;28;20065;-65
2022/12/18 01:09:54;;;;;;;79.38;33.05;;;;;;;-5.54;73.49;102049.97;4153902;28;20052;-64
2022/12/18 01:11:57;;;;;;;81.47;34.08;;;;;;;-5.52;72.11;102055.22;4165187;28;20084;-65
2022/12/18 01:14:00;;;;;;;69.50;31.63;;;;;;;-5.54;71.88;102051.63;4148363;28;20042;-65
2022/12/18 01:16:04;;;;;;;72.88;33.88;;;;;;;-5.49;73.26;102053.00;4164717;28;20055;-65
2022/12/18 01:18:11;;;;;;;77.10;34.55;;;;;;;-5.59;72.36;102047.69;4163999;28;20037;-65
2022/12/18 01:20:14;;;;;;;50.45;24.58;;;;;;;-5.68;73.59;102047.63;4157983;28;20100;-65
2022/12/18 01:22:17;;;;;;;73.45;31.27;;;;;;;-5.72;73.12;102046.44;4162735;28;20079;-65
2022/12/18 01:24:20;;;;;;;74.05;33.05;;;;;;;-5.62;74.02;102050.84;4151255;28;20080;-65
2022/12/18 01:26:25;;;;;;;74.25;33.50;;;;;;;-5.53;73.46;102053.44;4144201;28;20496;-65
2022/12/18 01:28:28;;;;;;;80.72;33.25;;;;;;;-5.46;72.83;102051.69;4163398;28;20110;-65
2022/12/18 01:30:31;;;;;;;74.25;32.47;;;;;;;-5.49;71.65;102055.53;4163935;28;20033;-65
2022/12/18 01:32:34;;;;;;;68.78;30.55;;;;;;;-5.53;71.85;102064.47;4160198;28;20451;-65
2022/12/18 01:34:39;;;;;;;69.53;33.38;;;;;;;-5.45;72.55;102067.78;4159597;28;20037;-65
2022/12/18 01:36:42;;;;;;;75.70;32.97;;;;;;;-5.46;71.83;102071.97;4154266;28;20111;-65
2022/12/18 01:38:45;;;;;;;85.75;36.35;;;;;;;-5.36;72.44;102066.22;4162987;28;20091;-65
2022/12/18 01:40:48;;;;;;;75.25;33.28;;;;;;;-5.38;72.06;102054.13;4177748;28;20048;-65
2022/12/18 01:42:52;;;;;;;77.80;33.15;;;;;;;-5.37;71.59;102054.28;4143043;28;20551;-65
2022/12/18 01:44:58;;;;;;;70.35;32.83;;;;;;;-5.51;71.94;102047.75;4159921;28;20048;-65
2022/12/18 01:47:01;;;;;;;71.53;33.67;;;;;;;-5.59;73.14;102046.09;4148273;28;20451;-65
2022/12/18 01:49:04;;;;;;;70.68;33.13;;;;;;;-5.51;73.30;102059.53;4163749;28;20041;-65
2022/12/18 01:51:10;;;;;;;75.70;33.22;;;;;;;-5.44;71.61;102054.38;4148482;28;20056;-65
2022/12/18 01:53:16;;;;;;;72.28;34.10;;;;;;;-5.56;72.53;102058.16;4139502;28;20042;-65
2022/12/18 01:55:22;;;;;;;74.85;33.05;;;;;;;-5.49;72.26;102053.00;4156704;28;20542;-65
2022/12/18 01:57:26;;;;;;;79.97;34.53;;;;;;;-5.51;72.82;102065.50;4142987;28;20099;-65
2022/12/18 01:59:32;;;;;;;75.07;32.58;;;;;;;-5.50;72.04;102063.88;4155473;28;20048;-65
2022/12/18 02:01:36;;;;;;;83.53;34.85;;;;;;;-5.66;73.53;102071.50;4158416;28;20041;-65
2022/12/18 02:03:42;;;;;;;73.60;33.75;;;;;;;-5.75;74.03;102066.38;4159699;28;20034;-65
2022/12/18 02:05:50;;;;;;;83.03;36.92;;;;;;;-5.72;74.24;102055.66;4156849;28;20079;-65
2022/12/18 02:08:04;;;;;;;83.47;33.83;;;;;;;-5.55;73.52;102050.72;4164507;28;20467;-65
2022/12/18 02:10:15;;;;;;;71.55;33.15;;;;;;;-5.39;72.85;102057.38;4164112;28;20045;-65
2022/12/18 02:12:21;;;;;;;84.88;37.42;;;;;;;-5.40;73.12;102064.09;4149137;28;20100;-65
2022/12/18 02:14:35;;;;;;;79.80;34.50;;;;;;;-5.33;72.28;102071.59;4149439;28;20479;-65
2022/12/18 02:16:46;;;;;;;77.10;34.28;;;;;;;-5.51;73.38;102068.03;4149328;28;20045;-64
2022/12/18 02:18:54;;;;;;;92.93;40.25;;;;;;;-5.60;73.41;102072.16;4159020;28;20132;-64
2022/12/18 02:21:05;;;;;;;77.90;34.78;;;;;;;-5.47;72.89;102075.22;4163786;28;20045;-64
2022/12/18 02:23:25;;;;;;;82.30;37.90;;;;;;;-5.49;73.13;102078.31;4141930;28;20100;-65
2022/12/18 02:25:41;;;;;;;87.55;36.17;;;;;;;-5.55;73.55;102070.97;4163632;28;20068;-64
2022/12/18 02:27:47;;;;;;;74.03;34.70;;;;;;;-5.35;73.61;102075.59;4157247;28;20044;-64
2022/12/18 02:29:53;;;;;;;79.93;34.90;;;;;;;-5.37;72.53;102073.63;4151500;28;20033;-64
2022/12/18 02:32:07;;;;;;;71.75;32.17;;;;;;;-5.37;73.28;102066.03;4134941;28;20045;-65
2022/12/18 02:34:11;;;;;;;82.55;36.20;;;;;;;-5.55;73.19;102075.16;4148513;28;20479;-64
2022/12/18 02:36:18;;;;;;;86.10;34.63;;;;;;;-5.43;72.80;102069.75;4148480;28;20518;-64
2022/12/18 02:38:24;;;;;;;77.72;35.72;;;;;;;-5.68;72.54;102055.22;4148608;28;20542;-64
2022/12/18 02:40:29;;;;;;;69.30;33.80;;;;;;;-5.71;73.91;102058.38;4152523;28;20038;-65
2022/12/18 02:42:33;;;;;;;78.63;33.88;;;;;;;-5.72;74.14;102060.72;4156230;28;20095;-65
2022/12/18 02:44:45;;;;;;;69.50;33.42;;;;;;;-5.69;73.25;102058.53;4170706;28;20098;-64
2022/12/18 02:46:53;;;;;;;74.93;34.42;;;;;;;-5.53;73.52;102063.56;4157873;28;20403;-65
2022/12/18 02:49:02;;;;;;;78.72;34.95;;;;;;;-5.48;72.36;102050.63;4148208;28;20048;-64
2022/12/18 02:51:24;;;;;;;71.28;34.58;;;;;;;-5.45;72.78;102039.91;4162056;28;20037;-64
2022/12/18 02:53:38;;;;;;;70.43;31.52;;;;;;;-5.54;72.84;102032.25;4140665;28;20042;-64
2022/12/18 02:55:52;;;;;;;66.55;30.58;;;;;;;-5.55;71.94;102019.41;4163491;28;20029;-64
2022/12/18 02:57:59;;;;;;;75.50;33.03;;;;;;;-5.58;73.15;102026.72;4156971;28;20390;-64
2022/12/18 03:00:13;;;;;;;72.50;32.20;;;;;;;-5.69;72.61;102050.94;4148686;28;20519;-64
2022/12/18 03:02:21;;;;;;;76.28;33.80;;;;;;;-5.71;73.10;102057.44;4152669;28;20491;-64
2022/12/18 03:04:29;;;;;;;80.60;35.03;;;;;;;-5.73;73.93;102057.28;4155955;28;20056;-64
2022/12/18 03:06:38;;;;;;;74.03;34.63;;;;;;;-5.66;73.72;102062.28;4153263;28;20077;-65
2022/12/18 03:08:45;;;;;;;78.15;33.15;;;;;;;-5.69;73.05;102061.06;4155026;28;20308;-65
2022/12/18 03:10:54;;;;;;;80.82;34.47;;;;;;;-5.76;73.13;102066.22;4145483;28;20502;-64
2022/12/18 03:13:01;;;;;;;72.32;32.60;;;;;;;-5.62;73.52;102063.50;4149094;28;20061;-65
2022/12/18 03:15:12;;;;;;;73.00;33.92;;;;;;;-5.39;73.57;102057.38;4147616;28;20504;-65
2022/12/18 03:17:21;;;;;;;;;;;;;;;-5.44;72.32;102046.78;4158275;28;20539;-64
2022/12/18 03:19:30;;;;;;;75.03;33.47;;;;;;;-5.29;72.78;102035.69;4157800;28;19921;-64
2022/12/18 03:21:39;;;;;;;93.50;37.88;;;;;;;-5.36;71.99;102022.22;4162839;28;20560;-64
2022/12/18 03:23:49;;;;;;;85.85;35.85;;;;;;;-5.45;73.24;102012.94;4157440;28;20037;-64
2022/12/18 03:25:55;;;;;;;91.03;37.88;;;;;;;-5.54;72.51;102011.09;4149657;28;20398;-64
2022/12/18 03:28:04;;;;;;;72.70;31.52;;;;;;;-5.69;73.20;102051.81;4160806;28;20049;-64
2022/12/18 03:30:12;;;;;;;69.88;34.70;;;;;;;-5.71;73.59;102060.91;4161100;28;20530;-64
2022/12/18 03:32:21;;;;;;;69.30;33.47;;;;;;;-5.73;74.39;102062.34;4154243;28;20037;-65
2022/12/18 03:34:30;;;;;;;82.10;34.70;;;;;;;-5.53;73.24;102053.44;4157807;28;20112;-65
2022/12/18 03:36:35;;;;;;;78.50;36.17;;;;;;;-5.38;74.38;102054.13;4161060;28;20068;-65
2022/12/18 03:38:38;;;;;;;82.10;36.08;;;;;;;-5.54;73.50;102051.63;4156840;28;20049;-65
2022/12/18 03:40:52;;;;;;;93.13;38.70;;;;;;;-5.58;73.63;102054.56;4160998;28;20575;-65
2022/12/18 03:43:01;;;;;;;82.18;33.15;;;;;;;-5.59;73.86;102056.22;4159168;28;20049;-65
2022/12/18 03:45:14;;;;;;;75.63;33.25;;;;;;;-5.55;75.42;102043.09;4152377;28;20437;-65
2022/12/18 03:47:28;;;;;;;84.88;35.50;;;;;;;-5.55;74.55;102045.63;4160790;28;20045;-65
2022/12/18 03:49:39;;;;;;;82.80;35.42;;;;;;;-5.52;75.25;102050.13;4152182;28;20034;-65
2022/12/18 03:51:50;;;;;;;80.75;36.50;;;;;;;-5.44;74.64;102050.19;4160237;28;20037;-65
2022/12/18 03:53:58;;;;;;;81.40;35.17;;;;;;;-5.41;74.40;102053.81;4147614;28;20050;-65
2022/12/18 03:56:07;;;;;;;77.80;33.83;;;;;;;-5.30;74.51;102053.25;4159612;28;20108;-65
2022/12/18 03:58:19;;;;;;;79.72;35.85;;;;;;;-5.06;73.46;102054.91;4157631;28;20043;-64
2022/12/18 04:00:36;;;;;;;77.65;35.78;;;;;;;-4.99;72.86;102057.31;4162245;28;20080;-65
2022/12/18 04:02:49;;;;;;;77.82;35.50;;;;;;;-5.27;72.51;102053.59;4145578;28;20069;-65
2022/12/18 04:05:02;;;;;;;81.07;35.20;;;;;;;-5.30;74.06;102051.66;4153839;28;20073;-65
2022/12/18 04:07:07;;;;;;;79.40;34.70;;;;;;;-5.17;73.21;102052.91;4162773;28;20120;-65
2022/12/18 04:09:14;;;;;;;74.95;33.75;;;;;;;-5.16;72.86;102054.69;4162469;28;20041;-65
2022/12/18 04:11:21;;;;;;;86.53;36.10;;;;;;;-5.14;73.46;102055.75;4155992;28;20049;-65
2022/12/18 04:13:25;;;;;;;73.68;33.83;;;;;;;-5.15;72.35;102053.97;4158193;28;20043;-65
2022/12/18 04:15:28;;;;;;;81.37;34.40;;;;;;;-5.13;72.48;102047.41;4159778;28;20096;-65
2022/12/18 04:17:34;;;;;;;80.15;35.15;;;;;;;-5.20;72.37;102048.41;4161687;28;20037;-65
2022/12/18 04:19:37;;;;;;;76.68;32.70;;;;;;;-5.31;72.16;102039.69;4149624;28;20475;-65
2022/12/18 04:21:40;;;;;;;71.53;32.25;;;;;;;-5.32;72.51;102047.16;4159221;28;20037;-65
2022/12/18 04:23:45;;;;;;;77.45;32.05;;;;;;;-5.34;73.66;102041.94;4149065;28;20112;-65
2022/12/18 04:25:48;;;;;;;88.13;38.08;;;;;;;-5.37;73.00;102031.47;4165282;28;20581;-65
2022/12/18 04:28:01;;;;;;;78.07;33.05;;;;;;;-5.30;73.10;102031.38;4151439;28;20056;-65
2022/12/18 04:30:06;;;;;;;80.93;35.60;;;;;;;-5.32;73.71;102030.28;4149372;28;20169;-65
2022/12/18 04:32:09;;;;;;;80.40;34.67;;;;;;;-5.37;74.23;102031.47;4157717;28;20506;-65
2022/12/18 04:34:14;;;;;;;53.55;25.20;;;;;;;-5.38;74.39;102029.66;4148730;28;20103;-65
2022/12/18 04:36:23;;;;;;;76.97;34.38;;;;;;;-5.34;74.68;102026.72;4165677;28;20091;-65
2022/12/18 04:38:26;;;;;;;71.95;32.22;;;;;;;-5.33;74.09;102036.13;4165434;28;20499;-65
2022/12/18 04:40:37;;;;;;;70.82;30.58;;;;;;;-5.39;73.30;102037.13;4150164;28;20038;-66
2022/12/18 04:42:47;;;;;;;66.68;30.50;;;;;;;-5.32;73.64;102039.53;4163522;28;20046;-65
2022/12/18 04:44:49;;;;;;;68.60;30.77;;;;;;;-5.34;73.46;102041.03;4159318;28;20124;-65
2022/12/18 04:46:52;;;;;;;59.65;29.25;;;;;;;-5.29;73.48;102035.69;4162205;28;20034;-66
2022/12/18 04:48:56;;;;;;;64.60;29.95;;;;;;;-5.35;73.48;102035.06;4164936;28;20499;-65
2022/12/18 04:51:00;;;;;;;74.28;30.73;;;;;;;-5.48;73.33;102037.06;4151074;28;20049;-65
2022/12/18 04:53:02;;;;;;;69.15;33.45;;;;;;;-5.54;72.36;102044.03;4158364;28;20050;-65
2022/12/18 04:55:05;;;;;;;66.97;29.35;;;;;;;-5.58;73.70;102045.31;4165570;28;20060;-65
2022/12/18 04:57:08;;;;;;;71.68;30.05;;;;;;;-5.52;73.14;102040.94;4162970;28;20034;-66
2022/12/18 04:59:11;;;;;;;74.15;33.13;;;;;;;-5.45;73.62;102045.91;4162405;28;20057;-65
2022/12/18 05:01:15;;;;;;;69.43;30.83;;;;;;;-5.31;73.08;102049.84;4160477;28;20037;-66
2022/12/18 05:03:18;;;;;;;66.45;30.60;;;;;;;-5.37;73.39;102046.69;4163672;28;20096;-65
2022/12/18 05:05:21;;;;;;;65.68;29.80;;;;;;;-5.37;73.58;102059.34;4157169;28;20041;-66
2022/12/18 05:07:25;;;;;;;70.70;30.13;;;;;;;-5.35;72.31;102062.94;4140853;28;20500;-65
2022/12/18 05:09:28;;;;;;;76.85;33.47;;;;;;;-5.33;72.81;102066.53;4154334;28;20042;-65
2022/12/18 05:11:31;;;;;;;71.75;31.10;;;;;;;-5.47;72.98;102064.19;4155937;28;20144;-65
2022/12/18 05:13:35;;;;;;;70.85;31.08;;;;;;;-5.31;72.79;102057.44;4153474;28;20099;-64
2022/12/18 05:15:38;;;;;;;70.35;29.70;;;;;;;-5.34;71.37;102054.59;4165155;28;20096;-65
2022/12/18 05:17:41;;;;;;;69.18;28.48;;;;;;;-5.23;72.06;102052.28;4152409;28;20041;-65
2022/12/18 05:19:43;;;;;;;66.47;31.15;;;;;;;-5.30;70.83;102059.25;4158989;28;20033;-65
2022/12/18 05:21:46;;;;;;;72.63;31.15;;;;;;;-5.47;71.07;102056.59;4157059;28;20046;-65
2022/12/18 05:23:50;;;;;;;65.15;31.67;;;;;;;-5.57;72.54;102072.47;4147113;28;20045;-65
2022/12/18 05:25:54;;;;;;;71.70;32.95;;;;;;;-5.70;72.00;102070.28;4158619;28;20038;-65
2022/12/18 05:27:56;;;;;;;70.13;31.53;;;;;;;-5.82;72.34;102074.94;4146263;28;20041;-65
2022/12/18 05:29:59;;;;;;;71.75;30.23;;;;;;;-5.80;72.44;102075.13;4149391;28;20046;-65
2022/12/18 05:32:02;;;;;;;66.78;32.45;;;;;;;-5.72;72.85;102066.69;4147468;28;20104;-65
2022/12/18 05:34:05;;;;;;;73.80;31.30;;;;;;;-5.64;72.16;102060.78;4162241;28;20416;-65
2022/12/18 05:36:09;;;;;;;65.38;30.92;;;;;;;-5.53;72.47;102064.47;4149088;28;20073;-65
2022/12/18 05:38:12;;;;;;;78.20;34.22;;;;;;;-5.56;72.05;102058.16;4159940;28;20037;-65
2022/12/18 05:40:16;;;;;;;74.85;30.52;;;;;;;-5.56;72.84;102048.03;4151097;28;20041;-65
2022/12/18 05:42:19;;;;;;;71.75;33.13;;;;;;;-5.62;72.78;102053.38;4152046;28;20107;-65
2022/12/18 05:44:22;;;;;;;72.55;32.33;;;;;;;-5.34;71.57;102056.25;4145849;28;20096;-65
2022/12/18 05:46:25;;;;;;;72.90;33.03;;;;;;;-5.36;71.50;102053.56;4162727;28;20514;-66
2022/12/18 05:48:28;;;;;;;70.43;30.70;;;;;;;-5.40;72.24;102060.66;4148571;28;20033;-66
2022/12/18 05:50:31;;;;;;;67.15;31.15;;;;;;;-5.57;71.95;102052.19;4152361;28;20372;-65
2022/12/18 05:52:36;;;;;;;72.47;32.75;;;;;;;-5.55;71.55;102059.97;4163719;28;20045;-65
2022/12/18 05:54:40;;;;;;;79.68;34.42;;;;;;;-5.54;71.62;102065.19;4156162;28;20042;-65
2022/12/18 05:56:44;;;;;;;71.15;33.30;;;;;;;-5.73;71.82;102049.69;4149523;28;20045;-65
2022/12/18 05:58:52;;;;;;;72.90;33.47;;;;;;;-5.66;72.12;102049.59;4139106;28;20049;-65
2022/12/18 06:00:55;;;;;;;64.75;31.10;;;;;;;-5.59;73.12;102052.78;4162422;28;20041;-65
2022/12/18 06:02:58;;;;;;;78.80;33.58;;;;;;;-5.47;71.69;102056.59;4157564;28;20084;-65
2022/12/18 06:05:01;;;;;;;72.60;33.83;;;;;;;-5.37;70.99;102051.75;4158635;28;20480;-65
2022/12/18 06:07:04;;;;;;;69.53;29.95;;;;;;;-5.56;71.71;102060.69;4153237;28;20038;-65
2022/12/18 06:09:09;;;;;;;78.43;33.33;;;;;;;-5.54;72.31;102062.66;4158447;28;20041;-65
2022/12/18 06:11:11;;;;;;;66.57;31.75;;;;;;;-5.67;72.14;102065.53;4150879;28;20125;-65
2022/12/18 06:13:16;;;;;;;68.70;31.58;;;;;;;-5.66;72.06;102074.94;4149673;28;20143;-65
2022/12/18 06:15:18;;;;;;;70.22;31.98;;;;;;;-5.64;72.51;102070.03;4148989;28;20384;-65
2022/12/18 06:17:22;;;;;;;67.93;30.00;;;;;;;-5.57;72.84;102071.59;4148964;28;20034;-65
2022/12/18 06:19:24;;;;;;;66.03;31.70;;;;;;;-5.55;71.90;102072.63;4148923;28;20447;-65
2022/12/18 06:21:28;;;;;;;70.90;31.58;;;;;;;-5.56;72.96;102069.22;4149869;28;20037;-65
2022/12/18 06:23:31;;;;;;;75.10;32.05;;;;;;;-5.63;72.02;102072.72;4159747;28;20041;-64
2022/12/18 06:25:33;;;;;;;67.20;29.88;;;;;;;-5.53;72.33;102076.25;4163458;28;20048;-64
2022/12/18 06:27:36;;;;;;;75.85;32.58;;;;;;;-5.52;71.87;102076.41;4163997;28;20041;-64
2022/12/18 06:29:40;;;;;;;72.82;30.75;;;;;;;-5.58;72.61;102085.88;4161161;28;20048;-64
2022/12/18 06:31:43;;;;;;;71.32;31.75;;;;;;;-5.57;72.95;102081.72;4161972;28;20040;-64
2022/12/18 06:33:46;;;;;;;68.40;33.40;;;;;;;-5.50;73.27;102084.16;4156210;28;20041;-64
2022/12/18 06:35:49;;;;;;;80.60;33.08;;;;;;;-5.35;71.79;102079.78;4146878;28;20512;-64
2022/12/18 06:37:52;;;;;;;74.13;33.17;;;;;;;-5.39;72.10;102082.72;4146576;28;20435;-65
2022/12/18 06:39:56;;;;;;;71.60;30.75;;;;;;;-5.43;71.34;102084.94;4147355;28;20423;-65
2022/12/18 06:41:59;;;;;;;73.37;32.77;;;;;;;-5.40;71.42;102081.84;4153766;28;20069;-65
2022/12/18 06:44:01;;;;;;;74.40;32.92;;;;;;;-5.42;72.61;102093.44;4155701;28;20045;-65
2022/12/18 06:46:06;;;;;;;70.25;32.75;;;;;;;-5.41;71.24;102085.09;4169352;28;20129;-65
2022/12/18 06:48:09;;;;;;;68.45;31.00;;;;;;;-5.47;72.13;102094.63;4161891;28;20454;-65
2022/12/18 06:50:13;;;;;;;72.38;34.22;;;;;;;-5.44;71.52;102100.88;4163027;28;20038;-65
2022/12/18 06:52:17;;;;;;;78.57;33.40;;;;;;;-5.40;71.15;102091.97;4162877;28;20080;-65
2022/12/18 06:54:20;;;;;;;68.05;32.15;;;;;;;-5.38;71.30;102090.50;4159275;28;20037;-65
2022/12/18 06:56:24;;;;;;;68.10;32.60;;;;;;;-5.40;71.71;102097.06;4151047;28;20411;-65
2022/12/18 06:58:27;;;;;;;73.70;33.47;;;;;;;-5.38;72.24;102099.75;4148291;28;20663;-65
2022/12/18 07:00:30;;;;;;;74.05;30.40;;;;;;;-5.29;70.51;102106.66;4148306;28;20042;-65
2022/12/18 07:02:34;;;;;;;75.82;33.97;;;;;;;-5.29;69.84;102105.75;4148113;28;20068;-64
2022/12/18 07:04:38;;;;;;;73.43;33.28;;;;;;;-5.52;71.20;102114.41;4156409;28;20040;-66
2022/12/18 07:06:40;;;;;;;72.95;34.67;;;;;;;-5.27;70.26;102112.78;4156552;28;20484;-65
2022/12/18 07:08:44;;;;;;;77.57;34.05;;;;;;;-5.59;71.39;102113.56;4154775;28;20061;-64
2022/12/18 07:10:48;;;;;;;77.63;36.65;;;;;;;-5.67;71.99;102116.19;4156377;28;20033;-64
2022/12/18 07:12:57;;;;;;;76.18;36.83;;;;;;;-5.33;69.96;102108.72;4154040;28;20132;-65
2022/12/18 07:15:00;;;;;;;77.47;36.63;;;;;;;-5.43;70.70;102111.94;4160607;28;20496;-65
2022/12/18 07:17:03;;;;;;;71.30;34.35;;;;;;;-5.49;69.56;102109.66;4152302;28;20480;-65
2022/12/18 07:19:09;;;;;;;80.15;34.40;;;;;;;-5.73;70.46;102119.72;4158081;28;20033;-65
2022/12/18 07:21:14;;;;;;;77.72;37.00;;;;;;;-5.80;71.96;102120.69;4159304;28;20065;-64
2022/12/18 07:23:17;;;;;;;96.82;48.53;;;;;;;-5.57;71.54;102118.06;4152845;28;20069;-65
2022/12/18 07:25:20;;;;;;;86.70;38.88;;;;;;;-5.60;71.12;102122.81;4147574;28;20041;-65
2022/12/18 07:27:23;;;;;;;80.35;36.05;;;;;;;-5.59;70.54;102129.69;4148145;28;20455;-64
2022/12/18 07:29:26;;;;;;;72.15;34.75;;;;;;;-5.56;69.62;102124.94;4145471;28;20034;-64
2022/12/18 07:31:29;;;;;;;76.85;37.25;;;;;;;-5.70;71.14;102120.94;4151950;28;20488;-65
2022/12/18 07:33:33;;;;;;;70.22;33.97;;;;;;;-5.92;71.51;102124.47;4154153;28;20511;-64
2022/12/18 07:35:37;;;;;;;71.07;33.00;;;;;;;-5.91;71.34;102129.69;4149668;28;20392;-65
2022/12/18 07:37:40;;;;;;;73.88;30.70;;;;;;;-5.89;71.83;102128.22;4156063;28;20081;-65
2022/12/18 07:39:42;;;;;;;71.55;31.95;;;;;;;-5.88;71.25;102129.13;4160075;28;20045;-65
2022/12/18 07:42:30;;;;;;;70.63;31.67;;;;;;;-5.87;71.47;102135.97;4170355;28;20037;-65
2022/12/18 07:44:10;;;;;;;75.35;34.80;;;;;;;-5.91;71.23;102133.84;4156788;28;20621;-65
2022/12/18 07:46:15;;;;;;;60.72;26.15;;;;;;;-5.79;71.52;102130.09;4154557;28;20034;-65
2022/12/18 07:48:18;;;;;;;;;;;;;;;-5.89;71.41;102129.84;4152201;28;20041;-65
2022/12/18 07:50:20;;;;;;;70.78;32.72;;;;;;;-5.92;70.84;102127.00;4155602;28;19952;-65
2022/12/18 07:52:25;;;;;;;71.47;32.97;;;;;;;-5.99;71.22;102131.41;4147269;28;20033;-65
2022/12/18 07:54:28;;;;;;;64.75;30.25;;;;;;;-6.07;71.10;102132.25;4151786;28;20034;-65
2022/12/18 07:56:30;;;;;;;61.70;29.13;;;;;;;-5.93;71.69;102136.22;4158864;28;20487;-65
2022/12/18 07:58:34;;;;;;;70.47;31.73;;;;;;;-5.80;70.49;102140.97;4156061;28;20030;-67
2022/12/18 08:00:37;;;;;;;65.32;30.15;;;;;;;-5.84;71.27;102136.28;4157740;28;20140;-65
2022/12/18 08:02:40;;;;;;;59.85;30.35;;;;;;;-5.93;70.87;102142.91;4162979;28;20037;-65
2022/12/18 08:04:44;;;;;;;63.50;31.20;;;;;;;-6.01;71.54;102143.03;4162344;28;20050;-65
2022/12/18 08:06:47;;;;;;;95.28;41.78;;;;;;;-5.99;71.63;102136.47;4162642;28;20083;-65
2022/12/18 08:08:52;;;;;;;95.93;40.13;;;;;;;-6.04;71.65;102136.75;4163954;28;20506;-65
2022/12/18 08:10:55;;;;;;;;;;;;;;;-6.03;71.94;102138.53;4164459;28;20384;-65
2022/12/18 08:12:58;;;;;;;81.20;35.72;;;;;;;-5.98;71.75;102142.47;4154663;28;19963;-65
2022/12/18 08:15:07;;;;;;;62.50;32.67;;;;;;;-5.98;70.84;102148.41;4147353;28;20050;-65
2022/12/18 08:17:10;;;;;;;61.95;29.95;;;;;;;-5.85;71.29;102143.00;4147507;28;20041;-65
2022/12/18 08:19:13;;;;;;;63.72;32.10;;;;;;;-5.83;71.43;102143.16;4149690;28;20084;-65
2022/12/18 08:21:17;;;;;;;61.55;29.35;;;;;;;-5.65;70.64;102142.59;4147679;28;20042;-65
2022/12/18 08:23:22;;;;;;;69.45;32.67;;;;;;;-5.54;69.42;102147.91;4145995;28;20125;-64
2022/12/18 08:25:31;;;;;;;56.83;29.83;;;;;;;-5.75;70.60;102147.44;4147516;28;20038;-66
2022/12/18 08:27:34;;;;;;;64.53;32.17;;;;;;;-5.78;70.17;102152.19;4147488;28;20045;-65
2022/12/18 08:29:38;;;;;;;64.40;29.25;;;;;;;-5.78;70.12;102157.25;4147792;28;20038;-65
2022/12/18 08:31:40;;;;;;;66.95;31.35;;;;;;;-5.78;70.23;102159.78;4161042;28;20076;-65
2022/12/18 08:33:43;;;;;;;62.60;31.27;;;;;;;-5.86;71.35;102150.44;4161090;28;20125;-65
2022/12/18 08:35:46;;;;;;;68.18;30.50;;;;;;;-5.85;70.73;102142.13;4166332;28;21606;-65
2022/12/18 08:37:49;;;;;;;58.20;29.50;;;;;;;-5.78;70.52;102131.91;4153899;28;20037;-65
2022/12/18 08:39:52;;;;;;;61.40;29.35;;;;;;;-5.61;71.02;102124.47;4149306;28;20037;-65
2022/12/18 08:46:39;;;;;;;73.63;35.22;;;;;;;-5.66;71.05;102123.06;4161721;28;20037;-65
2022/12/18 08:48:42;;;;;;;61.38;29.73;;;;;;;-5.55;70.12;102128.38;4147465;28;20029;-65
2022/12/18 08:50:53;;;;;;;66.50;30.25;;;;;;;-5.59;71.18;102121.19;4156460;28;20096;-65
2022/12/18 08:52:56;;;;;;;66.95;30.48;;;;;;;-5.58;70.76;102115.38;4154540;28;20041;-65
2022/12/18 08:54:59;;;;;;;58.30;28.42;;;;;;;-5.52;70.76;102106.81;4148500;28;20049;-65
2022/12/18 08:57:03;;;;;;;62.60;30.73;;;;;;;-5.47;70.63;102110.69;4158768;28;20474;-65
2022/12/18 08:59:06;;;;;;;54.72;28.40;;;;;;;-5.41;71.13;102094.34;4152014;28;21457;-65
2022/12/18 09:01:11;;;;;;;58.92;28.85;;;;;;;-5.32;70.27;102088.59;4153662;28;20503;-65
2022/12/18 09:03:14;;;;;;;;;;;;;;;-5.36;70.33;102099.19;4171460;28;20068;-65
2022/12/18 09:05:17;;;;;;;70.75;34.20;;;;;;;-5.39;71.30;102095.41;4149246;28;20401;-65
2022/12/18 09:07:20;;;;;;;64.43;31.55;;;;;;;-5.36;71.71;102089.03;4152063;28;20049;-65
2022/12/18 09:09:23;;;;;;;62.20;31.65;;;;;;;-5.32;71.39;102085.16;4160604;28;20049;-65
2022/12/18 09:11:28;;;;;;;63.40;29.40;;;;;;;-5.26;71.58;102091.78;4159457;28;20423;-66
2022/12/18 09:13:32;;;;;;;64.22;31.65;;;;;;;-5.17;70.54;102101.06;4157331;28;20120;-66
2022/12/18 09:15:35;;;;;;;64.85;32.83;;;;;;;-5.11;70.06;102099.16;4147817;28;20069;-66
2022/12/18 09:17:38;;;;;;;68.15;32.08;;;;;;;-5.10;71.84;102099.31;4156598;28;20076;-66
2022/12/18 09:19:41;;;;;;;57.63;29.95;;;;;;;-5.00;71.27;102096.09;4162841;28;20546;-66
2022/12/18 09:21:43;;;;;;;59.80;31.33;;;;;;;-4.91;70.54;102099.59;4159179;28;20165;-66
2022/12/18 09:23:50;;;;;;;54.65;28.67;;;;;;;-4.89;70.83;102099.75;4150127;28;20085;-66
2022/12/18 09:25:59;;;;;;;59.35;28.77;;;;;;;-4.93;71.32;102103.59;4161477;28;20041;-66
2022/12/18 09:28:02;;;;;;;62.75;29.20;;;;;;;-4.92;70.32;102105.41;4166273;28;20065;-66
2022/12/18 09:30:08;;;;;;;58.25;29.17;;;;;;;-4.88;70.81;102099.00;4160639;28;20034;-69
2022/12/18 09:32:11;;;;;;;57.38;30.23;;;;;;;-4.87;70.20;102105.88;4154042;28;20034;-66
2022/12/18 09:34:21;;;;;;;55.03;28.75;;;;;;;-4.92;69.30;102104.47;4159687;28;20099;-66